Time;durP1;ratioP1;P1;durP2;ratioP2;P2;SDS_P1;SDS_P2;PMS_P1;PMS_P2;Temp;Humidity;BMP_temperature;BMP_pressure;BME280_temperature;BME280_humidity;BME280_pressure;Samples;Min_cycle;Max_cycle;Signal;HPM_P1;HPM_P2
2022/08/25 00:02:12;;;;;;;7.53;6.35;;;;;;;26.68;46.75;101503.53;5090818;28;20044;-70
2022/08/25 00:04:39;;;;;;;8.25;5.80;;;;;;;26.63;46.75;101495.00;5095010;28;20071;-70
2022/08/25 00:07:07;;;;;;;6.88;5.80;;;;;;;26.58;46.83;101490.94;5095489;28;20330;-70
2022/08/25 00:09:34;;;;;;;8.35;5.90;;;;;;;26.54;46.72;101497.91;5094729;28;20056;-71
2022/08/25 00:12:03;;;;;;;7.10;5.40;;;;;;;26.50;46.80;101493.84;5094983;28;20046;-70
2022/08/25 00:14:34;;;;;;;8.18;5.55;;;;;;;26.45;46.90;101499.09;5095260;27;20052;-70
2022/08/25 00:17:03;;;;;;;9.07;6.03;;;;;;;26.45;47.04;101495.47;5094031;28;20070;-71
2022/08/25 00:19:33;;;;;;;5.85;5.05;;;;;;;26.41;46.78;101486.75;5094656;28;20028;-70
2022/08/25 00:22:01;;;;;;;5.95;4.80;;;;;;;26.39;46.87;101497.13;5094933;28;20111;-70
2022/08/25 00:24:29;;;;;;;6.20;4.75;;;;;;;26.38;46.99;101489.91;5095091;28;20040;-70
2022/08/25 00:26:57;;;;;;;5.00;4.60;;;;;;;26.35;46.78;101493.06;5094548;28;20052;-70
2022/08/25 00:29:30;;;;;;;7.45;4.78;;;;;;;26.34;46.84;101499.63;5094848;28;20036;-69
2022/08/25 00:31:58;;;;;;;6.82;4.60;;;;;;;26.32;46.85;101490.66;5095018;28;20044;-70
2022/08/25 00:34:34;;;;;;;6.97;4.88;;;;;;;26.29;46.92;101493.81;5094849;28;20490;-69
2022/08/25 00:37:02;;;;;;;5.68;4.53;;;;;;;26.28;46.91;101495.72;5094925;28;20040;-70
2022/08/25 00:39:29;;;;;;;5.88;4.90;;;;;;;26.27;46.95;101495.91;5093416;28;20086;-70
2022/08/25 00:41:56;;;;;;;6.45;5.10;;;;;;;26.24;46.79;101504.56;5094737;28;20040;-70
2022/08/25 00:44:24;;;;;;;5.38;4.80;;;;;;;26.22;46.92;101502.00;5095058;28;20081;-70
2022/08/25 00:46:56;;;;;;;5.40;4.60;;;;;;;26.20;47.05;101506.00;5093782;28;20036;-70
2022/08/25 00:49:40;;;;;;;5.15;4.10;;;;;;;26.19;47.02;101502.41;5094435;28;20406;-70
2022/08/25 00:52:19;;;;;;;7.15;4.10;;;;;;;26.16;46.79;101501.94;5094772;28;20398;-70
2022/08/25 00:54:57;;;;;;;4.80;4.40;;;;;;;26.13;46.70;101505.09;5094705;27;20051;-70
2022/08/25 00:57:35;;;;;;;5.80;4.80;;;;;;;26.09;46.81;101501.88;5087897;28;20032;-70
2022/08/25 01:00:13;;;;;;;8.10;4.38;;;;;;;26.05;46.82;101500.56;5094259;28;20044;-70
2022/08/25 01:02:39;;;;;;;7.07;4.55;;;;;;;26.00;46.92;101496.66;5094214;28;20048;-69
2022/08/25 01:05:07;;;;;;;6.75;4.68;;;;;;;25.96;46.88;101505.28;5093960;28;20085;-69
2022/08/25 01:07:35;;;;;;;6.93;4.63;;;;;;;25.96;47.11;101496.19;5094267;28;20489;-70
2022/08/25 01:10:03;;;;;;;6.93;4.82;;;;;;;25.95;46.72;101495.31;5094435;28;20043;-70
2022/08/25 01:12:30;;;;;;;8.75;5.18;;;;;;;25.94;46.79;101501.88;5093995;28;20046;-70
2022/08/25 01:14:57;;;;;;;7.53;4.82;;;;;;;25.92;47.01;101500.38;5092446;27;20044;-70
2022/08/25 01:17:26;;;;;;;4.95;4.45;;;;;;;25.89;46.76;101498.84;5093991;28;20040;-70
2022/08/25 01:19:54;;;;;;;7.28;5.00;;;;;;;25.86;46.67;101496.50;5093534;28;20040;-70
2022/08/25 01:22:21;;;;;;;6.25;4.70;;;;;;;25.84;46.70;101495.81;5093742;28;20047;-69
2022/08/25 01:24:58;;;;;;;5.32;4.70;;;;;;;25.82;46.69;101497.06;5093972;28;20040;-70
2022/08/25 01:27:24;;;;;;;5.25;4.57;;;;;;;25.81;46.71;101496.22;5073648;28;20051;-69
2022/08/25 01:29:51;;;;;;;5.82;4.75;;;;;;;25.80;46.52;101491.75;5080990;28;20042;-70
2022/08/25 01:32:18;;;;;;;5.28;4.30;;;;;;;25.79;46.67;101492.81;5093470;28;20047;-69
2022/08/25 01:34:45;;;;;;;4.75;4.25;;;;;;;25.79;46.57;101502.97;5093844;28;20047;-70
2022/08/25 01:37:14;;;;;;;6.05;4.40;;;;;;;25.76;46.65;101498.69;5093369;28;20044;-69
2022/08/25 01:39:41;;;;;;;6.13;4.07;;;;;;;25.73;46.61;101493.56;5093472;28;20390;-69
2022/08/25 01:42:11;;;;;;;5.07;3.90;;;;;;;25.70;46.45;101499.47;5093695;28;20381;-69
2022/08/25 01:44:42;;;;;;;7.28;4.03;;;;;;;25.69;46.24;101497.75;5093693;28;20444;-70
2022/08/25 01:47:10;;;;;;;4.82;3.90;;;;;;;25.66;46.24;101498.16;5092829;28;20044;-70
2022/08/25 01:49:37;;;;;;;6.60;4.30;;;;;;;25.65;46.12;101501.91;5092127;28;20047;-70
2022/08/25 01:52:15;;;;;;;7.20;4.90;;;;;;;25.62;46.20;101500.41;5093280;28;20512;-70
2022/08/25 01:54:42;;;;;;;7.47;4.75;;;;;;;25.59;45.96;101497.16;5093682;28;20046;-70
2022/08/25 01:57:09;;;;;;;6.00;4.43;;;;;;;25.57;46.09;101499.25;5092994;28;20042;-70
2022/08/25 01:59:36;;;;;;;5.88;4.03;;;;;;;25.55;46.06;101495.84;5093147;28;20039;-70
2022/08/25 02:02:04;;;;;;;5.53;4.28;;;;;;;25.54;46.16;101511.50;5092970;28;20388;-69
2022/08/25 02:04:36;;;;;;;5.10;4.18;;;;;;;25.51;46.24;101508.28;5093191;28;20043;-69
2022/08/25 02:07:04;;;;;;;6.50;4.40;;;;;;;25.49;46.09;101507.63;5092630;27;20059;-70
2022/08/25 02:09:31;;;;;;;6.63;4.72;;;;;;;25.46;46.08;101513.50;5091783;28;20048;-69
2022/08/25 02:11:58;;;;;;;6.80;4.65;;;;;;;25.43;45.98;101509.22;5092723;28;20115;-69
2022/08/25 02:14:29;;;;;;;7.28;4.70;;;;;;;25.38;45.85;101506.19;5093059;28;20491;-69
2022/08/25 02:16:56;;;;;;;6.07;4.57;;;;;;;25.36;45.89;101508.28;5092400;28;20048;-69
2022/08/25 02:19:24;;;;;;;5.50;4.90;;;;;;;25.33;46.17;101512.25;5092868;28;20040;-69
2022/08/25 02:21:52;;;;;;;5.55;4.47;;;;;;;25.33;45.76;101504.03;5092854;28;20127;-70
2022/08/25 02:24:19;;;;;;;5.85;4.68;;;;;;;25.32;46.05;101501.47;5093203;27;20070;-69
2022/08/25 02:26:46;;;;;;;10.13;5.07;;;;;;;25.30;46.00;101504.41;5091779;28;20036;-70
2022/08/25 02:29:13;;;;;;;6.15;5.07;;;;;;;25.27;45.99;101499.28;5092417;28;20043;-70
2022/08/25 02:31:40;;;;;;;5.95;5.03;;;;;;;25.25;46.15;101504.06;5092365;28;20073;-69
2022/08/25 02:34:08;;;;;;;7.18;4.80;;;;;;;25.21;46.22;101505.50;5092711;28;20036;-70
2022/08/25 02:36:36;;;;;;;7.07;5.50;;;;;;;25.17;46.19;101501.41;5092237;28;20037;-69
2022/08/25 02:39:04;;;;;;;10.90;5.50;;;;;;;25.11;45.89;101499.44;5092797;28;20394;-69
2022/08/25 02:41:32;;;;;;;6.68;4.75;;;;;;;25.06;45.86;101503.78;5092433;28;20055;-69
2022/08/25 02:44:02;;;;;;;6.22;4.82;;;;;;;24.98;46.11;101496.47;5092571;28;20048;-70
2022/08/25 02:46:29;;;;;;;6.15;4.65;;;;;;;24.94;45.92;101497.84;5091731;27;20424;-70
2022/08/25 02:48:57;;;;;;;5.22;4.72;;;;;;;24.91;45.66;101498.22;5092194;28;20070;-69
2022/08/25 02:51:25;;;;;;;5.03;4.25;;;;;;;24.89;46.09;101498.41;5091623;28;20538;-69
2022/08/25 02:53:53;;;;;;;7.05;4.53;;;;;;;24.87;45.87;101496.91;5091299;28;20085;-70
2022/08/25 02:56:19;;;;;;;4.88;4.38;;;;;;;24.82;46.30;101494.72;5090303;28;20040;-69
2022/08/25 02:58:46;;;;;;;6.65;4.63;;;;;;;24.78;46.04;101492.53;5091572;28;20040;-70
2022/08/25 03:01:15;;;;;;;6.03;4.68;;;;;;;24.74;45.88;101488.44;5090401;28;20506;-70
2022/08/25 03:03:47;;;;;;;6.05;4.38;;;;;;;24.71;45.98;101485.03;5091377;28;20379;-69
2022/08/25 03:06:17;;;;;;;6.03;4.60;;;;;;;24.71;46.14;101486.94;5091263;28;20036;-69
2022/08/25 03:08:44;;;;;;;6.38;4.95;;;;;;;24.69;45.95;101491.75;5090155;28;20452;-69
2022/08/25 03:11:10;;;;;;;6.53;5.13;;;;;;;24.69;46.42;101483.50;5091184;28;20054;-69
2022/08/25 03:13:39;;;;;;;7.05;4.88;;;;;;;24.68;46.18;101481.81;5091253;28;20040;-70
2022/08/25 03:16:07;;;;;;;6.82;4.90;;;;;;;24.65;46.27;101480.28;5088020;28;20059;-70
2022/08/25 03:18:39;;;;;;;6.68;4.75;;;;;;;24.62;46.29;101471.56;5090922;28;20038;-69
2022/08/25 03:21:07;;;;;;;6.03;4.72;;;;;;;24.59;46.14;101480.16;5091375;28;20450;-69
2022/08/25 03:23:40;;;;;;;6.55;5.00;;;;;;;24.56;46.13;101477.78;5091512;28;20043;-69
2022/08/25 03:28:54;;;;;;;;;;;;;;;24.53;46.16;101480.91;5092179;28;20040;-70
2022/08/25 03:31:26;;;;;;;8.05;4.78;;;;;;;24.55;45.79;101470.59;5091661;28;19920;-70
2022/08/25 03:33:54;;;;;;;4.75;4.03;;;;;;;24.51;46.11;101472.81;5091703;28;20091;-70
2022/08/25 03:36:21;;;;;;;7.93;5.05;;;;;;;24.48;45.46;101464.09;5090572;28;20421;-70
2022/08/25 03:38:48;;;;;;;7.13;4.85;;;;;;;24.43;45.94;101463.81;5090509;28;20137;-70
2022/08/25 03:41:21;;;;;;;7.72;4.78;;;;;;;24.37;45.82;101457.16;5091038;28;20036;-70
2022/08/25 03:43:49;;;;;;;9.23;5.03;;;;;;;24.34;45.83;101457.53;5090306;28;20401;-70
2022/08/25 03:46:21;;;;;;;7.28;4.35;;;;;;;24.33;46.21;101458.56;5091262;28;20044;-71
2022/08/25 03:48:48;;;;;;;5.35;4.30;;;;;;;24.31;46.08;101452.41;5090024;28;20047;-69
2022/08/25 03:51:24;;;;;;;6.60;4.30;;;;;;;24.31;45.84;101449.66;5073225;28;20047;-70
2022/08/25 03:53:53;;;;;;;7.30;4.35;;;;;;;24.30;46.10;101453.44;5091145;28;20393;-70
2022/08/25 03:56:20;;;;;;;4.82;4.00;;;;;;;24.29;45.99;101454.47;5090880;28;20529;-69
2022/08/25 03:58:47;;;;;;;4.45;3.80;;;;;;;24.28;45.85;101448.13;5091455;28;20109;-69
2022/08/25 04:01:14;;;;;;;10.05;4.25;;;;;;;24.28;45.86;101450.88;5091111;28;20075;-69
2022/08/25 04:03:45;;;;;;;4.80;3.85;;;;;;;24.28;45.74;101450.03;5090089;28;20040;-70
2022/08/25 04:06:12;;;;;;;5.50;4.28;;;;;;;24.25;45.77;101448.47;5089387;28;20406;-69
2022/08/25 04:08:39;;;;;;;5.93;3.85;;;;;;;24.25;45.55;101447.63;5091129;28;20048;-69
2022/08/25 04:11:14;;;;;;;6.38;4.32;;;;;;;24.21;45.64;101444.38;5091053;28;20044;-69
2022/08/25 04:13:45;;;;;;;6.63;3.90;;;;;;;24.19;45.49;101438.22;5091042;28;20044;-69
2022/08/25 04:16:23;;;;;;;4.80;3.92;;;;;;;24.16;45.67;101441.34;5090644;28;20044;-69
2022/08/25 04:18:51;;;;;;;6.40;3.95;;;;;;;24.15;45.42;101436.03;5091002;28;20044;-69
2022/08/25 04:21:19;;;;;;;5.82;3.80;;;;;;;24.12;45.40;101436.41;5091103;28;20502;-69
2022/08/25 04:23:52;;;;;;;7.40;3.92;;;;;;;24.09;45.39;101433.00;5090936;28;20040;-69
2022/08/25 04:26:26;;;;;;;7.82;3.83;;;;;;;24.09;45.69;101435.72;5090165;28;20052;-69
2022/08/25 04:28:55;;;;;;;4.27;3.80;;;;;;;24.09;45.35;101440.38;5090986;28;20413;-70
2022/08/25 04:31:21;;;;;;;5.63;3.95;;;;;;;24.06;45.53;101432.50;5089917;28;20047;-70
2022/08/25 04:33:51;;;;;;;5.32;3.47;;;;;;;24.03;45.34;101439.22;5090930;28;20094;-69
2022/08/25 04:36:20;;;;;;;5.22;3.50;;;;;;;24.03;45.52;101447.44;5090468;28;20482;-69
2022/08/25 04:38:48;;;;;;;6.88;3.85;;;;;;;24.02;45.68;101432.00;5089591;28;20044;-69
2022/08/25 04:41:18;;;;;;;4.97;3.72;;;;;;;24.00;45.57;101435.97;5089575;28;20044;-69
2022/08/25 04:43:48;;;;;;;8.18;4.15;;;;;;;23.98;45.24;101440.78;5090443;28;20036;-69
2022/08/25 04:46:19;;;;;;;5.93;3.83;;;;;;;23.95;45.27;101442.00;5090540;28;20482;-69
2022/08/25 04:48:48;;;;;;;4.57;3.50;;;;;;;23.94;45.38;101436.69;5091282;28;20549;-69
2022/08/25 04:51:19;;;;;;;4.03;3.35;;;;;;;23.92;45.25;101439.63;5092992;28;20448;-69
2022/08/25 04:53:46;;;;;;;5.70;3.80;;;;;;;23.92;45.48;101436.03;5094499;28;20040;-69
2022/08/25 04:56:16;;;;;;;4.93;3.35;;;;;;;23.88;45.50;101441.03;5094202;28;20390;-69
2022/08/25 04:58:44;;;;;;;6.63;3.80;;;;;;;23.86;45.42;101437.59;5094597;28;20047;-69
2022/08/25 05:01:14;;;;;;;6.50;3.60;;;;;;;23.84;45.42;101431.44;5094413;28;20044;-69
2022/08/25 05:03:46;;;;;;;6.32;3.20;;;;;;;23.85;45.47;101430.41;5093857;28;20040;-68
2022/08/25 05:06:13;;;;;;;9.95;4.88;;;;;;;23.86;45.51;101426.63;5094018;28;20119;-69
2022/08/25 05:08:42;;;;;;;7.63;3.75;;;;;;;23.88;45.34;101426.47;5093236;28;20044;-68
2022/08/25 05:11:13;;;;;;;4.18;3.17;;;;;;;23.88;45.50;101429.19;5093993;28;20287;-69
2022/08/25 05:13:47;;;;;;;3.97;3.28;;;;;;;23.89;45.56;101425.41;5093996;28;20043;-68
2022/08/25 05:16:17;;;;;;;3.53;3.20;;;;;;;23.90;45.33;101427.97;5075852;28;20485;-68
2022/08/25 05:18:44;;;;;;;5.38;3.40;;;;;;;23.92;45.66;101434.13;5093993;28;20036;-69
2022/08/25 05:21:14;;;;;;;7.35;3.03;;;;;;;23.93;45.31;101437.75;5093851;28;20055;-69
2022/08/25 05:23:46;;;;;;;5.13;3.25;;;;;;;23.95;45.50;101436.53;5093968;28;20446;-69
2022/08/25 05:26:16;;;;;;;4.30;3.42;;;;;;;23.99;45.34;101431.53;5093455;28;20036;-69
2022/08/25 05:28:48;;;;;;;4.57;3.22;;;;;;;24.01;45.33;101441.28;5093587;28;20049;-69
2022/08/25 05:31:15;;;;;;;5.28;3.33;;;;;;;24.03;45.25;101444.69;5093782;28;20635;-69
2022/08/25 05:33:46;;;;;;;7.53;4.07;;;;;;;24.04;45.15;101448.28;5093615;28;20051;-69
2022/08/25 05:36:13;;;;;;;6.22;3.70;;;;;;;24.05;45.49;101447.25;5093797;28;20040;-69
2022/08/25 05:38:40;;;;;;;4.40;3.60;;;;;;;24.09;45.47;101449.44;5093771;28;20079;-69
2022/08/25 05:41:11;;;;;;;6.25;3.83;;;;;;;24.13;45.34;101454.56;5093701;28;20454;-69
2022/08/25 05:43:40;;;;;;;5.47;3.53;;;;;;;24.17;45.41;101458.66;5093615;28;20059;-70
2022/08/25 05:46:08;;;;;;;6.53;3.70;;;;;;;24.23;45.62;101466.16;5093234;28;20043;-70
2022/08/25 05:48:35;;;;;;;6.65;4.25;;;;;;;24.27;45.44;101473.03;5093580;28;20036;-70
2022/08/25 05:51:04;;;;;;;9.50;3.90;;;;;;;24.32;45.63;101473.31;5093380;28;20048;-70
2022/08/25 05:53:40;;;;;;;4.55;3.67;;;;;;;24.36;45.68;101472.78;5093198;28;20066;-70
2022/08/25 05:56:07;;;;;;;5.10;3.97;;;;;;;24.39;45.51;101461.44;5091063;28;20469;-69
2022/08/25 05:58:35;;;;;;;5.78;3.75;;;;;;;24.41;45.47;101466.72;5091507;28;20036;-69
2022/08/25 06:02:39;;;;;;;4.68;3.78;;;;;;;24.41;45.50;101464.00;5092127;28;20516;-68
2022/08/25 06:03:52;;;;;;;6.50;3.65;;;;;;;24.44;45.66;101462.75;5093020;28;20101;-70
2022/08/25 06:06:21;;;;;;;6.57;3.78;;;;;;;24.45;45.29;101467.22;5092526;28;20444;-69
2022/08/25 06:08:48;;;;;;;6.93;4.68;;;;;;;24.47;45.65;101468.75;5093006;28;20036;-69
2022/08/25 06:11:15;;;;;;;8.45;4.03;;;;;;;24.52;45.37;101466.28;5092939;28;20040;-70
2022/08/25 06:13:43;;;;;;;10.38;4.35;;;;;;;24.55;45.31;101460.47;5092836;28;20055;-69
2022/08/25 06:16:09;;;;;;;4.35;3.95;;;;;;;24.61;45.30;101467.09;5092200;28;20036;-70
2022/08/25 06:18:36;;;;;;;8.27;4.43;;;;;;;24.68;44.90;101471.66;5091691;28;20066;-69
2022/08/25 06:21:11;;;;;;;9.95;4.13;;;;;;;24.78;45.36;101471.41;5091438;28;20490;-68
2022/08/25 06:23:40;;;;;;;10.07;4.13;;;;;;;24.87;45.06;101461.19;5092753;28;20038;-69
2022/08/25 06:26:10;;;;;;;6.32;4.25;;;;;;;24.99;45.02;101467.97;5092397;28;20044;-69
2022/08/25 06:28:50;;;;;;;5.85;4.00;;;;;;;25.10;44.78;101462.00;5092728;28;20028;-69
2022/08/25 06:31:18;;;;;;;12.52;4.20;;;;;;;25.25;44.74;101467.47;5092574;28;20508;-70
2022/08/25 06:33:45;;;;;;;13.02;4.10;;;;;;;25.38;44.52;101462.19;5091030;28;20040;-71
2022/08/25 06:36:12;;;;;;;10.88;4.22;;;;;;;25.51;44.83;101473.38;5091680;28;20402;-68
2022/08/25 06:38:39;;;;;;;8.48;3.97;;;;;;;25.67;44.54;101472.34;5092336;28;20050;-68
2022/08/25 06:41:07;;;;;;;8.07;3.95;;;;;;;25.85;44.44;101463.66;5092452;28;20036;-68
2022/08/25 06:43:39;;;;;;;7.82;3.53;;;;;;;26.05;44.29;101466.66;5091899;28;20039;-68
2022/08/25 06:46:17;;;;;;;8.45;3.92;;;;;;;26.29;43.99;101466.28;5089986;28;20040;-68
2022/08/25 06:48:44;;;;;;;8.75;4.00;;;;;;;26.47;43.79;101463.09;5092313;28;20044;-68
2022/08/25 06:51:14;;;;;;;4.78;3.42;;;;;;;26.65;43.60;101465.34;5092227;28;20040;-68
2022/08/25 06:53:48;;;;;;;5.75;3.50;;;;;;;26.80;43.51;101472.50;5092030;28;20078;-69
2022/08/25 06:56:16;;;;;;;8.07;3.63;;;;;;;26.97;43.28;101466.69;5091954;27;20054;-69
2022/08/25 06:58:42;;;;;;;7.80;3.38;;;;;;;27.15;43.09;101467.91;5092029;28;20046;-69
2022/08/25 07:01:15;;;;;;;5.82;3.58;;;;;;;27.32;42.83;101460.16;5092207;28;20066;-68
2022/08/25 07:03:49;;;;;;;7.57;3.90;;;;;;;27.51;42.63;101459.41;5091992;28;20042;-69
2022/08/25 07:06:18;;;;;;;5.82;3.65;;;;;;;27.69;42.25;101458.88;5091734;27;20063;-69
2022/08/25 07:08:46;;;;;;;8.50;3.50;;;;;;;27.85;42.16;101455.75;5090261;28;20039;-69
2022/08/25 07:11:14;;;;;;;5.85;3.95;;;;;;;28.04;42.01;101456.88;5091827;28;20259;-69
2022/08/25 07:13:43;;;;;;;8.10;3.58;;;;;;;28.21;41.21;101456.47;5091487;28;20334;-69
2022/08/25 07:16:10;;;;;;;6.15;3.65;;;;;;;28.32;41.27;101453.16;5091748;28;20047;-68
2022/08/25 07:18:37;;;;;;;5.85;4.20;;;;;;;28.46;41.02;101444.66;5092178;28;20107;-68
2022/08/25 07:21:04;;;;;;;5.63;3.60;;;;;;;28.64;40.62;101448.69;5091089;27;20059;-66
2022/08/25 07:23:36;;;;;;;7.50;3.20;;;;;;;28.80;40.52;101445.50;5091592;28;20032;-68
2022/08/25 07:26:09;;;;;;;5.85;3.20;;;;;;;28.95;40.28;101446.13;5091561;28;20055;-66
2022/08/25 07:28:52;;;;;;;5.85;3.10;;;;;;;29.12;40.28;101442.94;5091531;28;20047;-66
2022/08/25 07:31:20;;;;;;;7.07;4.00;;;;;;;29.29;40.13;101450.56;5091065;28;20040;-67
2022/08/25 07:36:42;;;;;;;8.30;3.35;;;;;;;29.57;39.60;101441.97;5091642;28;20375;-67
2022/08/25 07:39:09;;;;;;;5.13;3.13;;;;;;;29.68;39.23;101444.03;5091360;27;20494;-67
2022/08/25 07:41:38;;;;;;;8.23;3.15;;;;;;;29.84;39.00;101439.94;5091380;28;20417;-66
2022/08/25 07:44:10;;;;;;;7.10;3.33;;;;;;;30.04;38.73;101442.63;5091591;28;20074;-67
2022/08/25 07:46:38;;;;;;;7.57;3.05;;;;;;;30.21;38.21;101443.78;5091532;27;20048;-66
2022/08/25 07:49:08;;;;;;;7.22;3.22;;;;;;;30.34;38.09;101452.00;5091611;28;20048;-67
2022/08/25 07:51:44;;;;;;;8.82;3.38;;;;;;;30.48;37.76;101441.69;5091258;28;20040;-66
2022/08/25 07:54:31;;;;;;;7.78;3.28;;;;;;;30.61;37.75;101433.28;5091688;28;20051;-67
2022/08/25 07:57:02;;;;;;;5.75;3.40;;;;;;;30.68;37.60;101441.53;5091410;27;20048;-68
2022/08/25 07:59:29;;;;;;;8.25;2.90;;;;;;;30.79;37.57;101438.03;5090024;28;20097;-69
2022/08/25 08:02:06;;;;;;;6.40;3.10;;;;;;;30.93;37.22;101442.34;5091777;28;20362;-71
2022/08/25 08:04:36;;;;;;;6.25;2.78;;;;;;;31.11;36.68;101435.97;5090846;28;20036;-71
2022/08/25 08:07:03;;;;;;;8.73;3.20;;;;;;;31.27;36.76;101440.97;5091394;27;20056;-74
2022/08/25 08:09:37;;;;;;;4.90;3.20;;;;;;;31.46;36.80;101430.72;5091202;28;20133;-69
2022/08/25 08:12:04;;;;;;;7.78;3.05;;;;;;;31.63;36.41;101432.84;5090191;28;20036;-70
2022/08/25 08:14:31;;;;;;;5.68;3.05;;;;;;;31.73;36.03;101430.38;5091285;28;20482;-69
2022/08/25 08:16:58;;;;;;;10.43;2.97;;;;;;;31.84;35.89;101426.81;5090386;28;20048;-69
2022/08/25 08:19:25;;;;;;;4.35;2.60;;;;;;;31.98;35.75;101424.72;5090806;28;20102;-69
2022/08/25 08:21:52;;;;;;;6.50;3.00;;;;;;;32.08;35.58;101419.44;5091058;28;20036;-69
2022/08/25 08:24:19;;;;;;;7.05;2.70;;;;;;;32.16;35.45;101422.72;5092059;28;20080;-69
2022/08/25 08:27:07;;;;;;;6.57;3.33;;;;;;;32.27;34.98;101411.91;5095106;28;20047;-69
2022/08/25 08:29:35;;;;;;;6.75;2.85;;;;;;;32.35;35.18;101423.50;5094972;28;20036;-69
2022/08/25 08:32:03;;;;;;;5.85;3.03;;;;;;;32.43;35.05;101416.75;5095143;28;20409;-70
2022/08/25 08:34:31;;;;;;;5.65;2.80;;;;;;;32.50;34.88;101420.28;5095064;28;20557;-70
2022/08/25 08:36:59;;;;;;;7.45;2.72;;;;;;;32.60;34.54;101426.09;5095137;28;20068;-70
2022/08/25 08:39:27;;;;;;;4.90;3.28;;;;;;;32.70;34.77;101414.34;5094985;28;20040;-70
2022/08/25 08:42:16;;;;;;;5.00;2.65;;;;;;;32.75;34.54;101411.72;5094696;28;20054;-69
2022/08/25 08:44:45;;;;;;;5.15;2.70;;;;;;;32.81;34.18;101411.63;5094383;28;20390;-71
2022/08/25 08:47:15;;;;;;;8.52;2.85;;;;;;;32.86;34.23;101410.91;5094783;28;20138;-70
2022/08/25 08:50:05;;;;;;;6.38;2.95;;;;;;;32.89;33.65;101398.44;5094645;28;20486;-70
2022/08/25 08:52:42;;;;;;;6.55;2.70;;;;;;;32.91;34.00;101402.69;5096716;28;20035;-70
2022/08/25 08:55:20;;;;;;;3.20;2.90;;;;;;;32.94;33.70;101399.41;5098211;28;20541;-70
2022/08/25 08:57:50;;;;;;;6.22;2.88;;;;;;;33.00;33.65;101404.00;5094296;28;20028;-69
2022/08/25 09:00:17;;;;;;;9.50;3.20;;;;;;;33.08;33.68;101400.00;5094399;28;20103;-70
2022/08/25 09:03:09;;;;;;;9.15;3.35;;;;;;;33.17;33.50;101404.09;5093730;28;20087;-70
2022/08/25 09:05:49;;;;;;;4.80;2.60;;;;;;;33.32;33.58;101401.66;5095303;28;20097;-70
2022/08/25 09:08:16;;;;;;;5.80;3.10;;;;;;;33.43;33.09;101403.56;5114474;27;20032;-70
2022/08/25 09:10:57;;;;;;;6.82;3.33;;;;;;;33.55;33.09;101397.13;5114525;28;20039;-70
2022/08/25 09:13:36;;;;;;;5.20;3.20;;;;;;;33.68;33.42;101402.41;5114212;28;20036;-69
2022/08/25 09:16:56;;;;;;;6.53;3.15;;;;;;;33.80;33.13;101392.91;5101915;28;20036;-71
2022/08/25 09:19:44;;;;;;;5.97;2.60;;;;;;;33.96;32.83;101398.78;5093810;28;20040;-70
2022/08/25 09:22:38;;;;;;;5.32;3.17;;;;;;;34.08;32.91;101397.63;5093281;28;20474;-70
2022/08/25 09:25:14;;;;;;;4.45;2.80;;;;;;;34.20;32.45;101393.94;5093549;27;20048;-70
2022/08/25 09:28:05;;;;;;;8.88;3.28;;;;;;;34.33;32.17;101393.66;5092753;28;20036;-69
2022/08/25 09:30:40;;;;;;;5.10;3.45;;;;;;;34.41;31.79;101396.84;5093647;28;20047;-70
2022/08/25 09:33:22;;;;;;;4.43;3.25;;;;;;;34.53;31.78;101412.66;5093346;28;20460;-71
2022/08/25 09:35:51;;;;;;;5.50;2.95;;;;;;;34.62;31.89;101409.19;5093436;28;20040;-70
2022/08/25 09:38:19;;;;;;;7.28;3.72;;;;;;;34.70;31.44;101399.53;5093516;28;20119;-70
2022/08/25 09:40:54;;;;;;;6.88;2.90;;;;;;;34.74;30.78;101398.78;5093457;28;20047;-69
2022/08/25 09:43:34;;;;;;;7.63;3.30;;;;;;;34.81;30.74;101397.75;5092789;28;20148;-66
2022/08/25 09:46:07;;;;;;;6.65;3.25;;;;;;;34.90;30.99;101397.06;5093237;28;20036;-69
2022/08/25 09:48:42;;;;;;;9.35;3.45;;;;;;;35.02;30.76;101388.63;5093365;28;20063;-69
2022/08/25 09:51:17;;;;;;;;;;;;;;;35.14;31.08;101385.72;5093521;28;20044;-69
2022/08/25 09:53:53;;;;;;;6.75;3.20;;;;;;;35.31;30.67;101390.13;5092512;28;20010;-69
2022/08/25 09:56:23;;;;;;;6.82;3.10;;;;;;;35.35;30.52;101388.53;5093281;28;20071;-68
2022/08/25 09:58:54;;;;;;;5.88;3.20;;;;;;;35.37;30.01;101385.47;5091744;28;20071;-68
2022/08/25 10:01:27;;;;;;;7.78;2.90;;;;;;;35.40;29.99;101386.91;5092905;27;20048;-67
2022/08/25 10:04:05;;;;;;;5.40;3.00;;;;;;;35.47;29.78;101387.53;5092971;28;20048;-67
2022/08/25 10:06:45;;;;;;;4.95;3.13;;;;;;;35.60;29.72;101381.53;5093089;28;20085;-66
2022/08/25 10:09:25;;;;;;;5.95;2.72;;;;;;;35.74;30.07;101384.78;5092774;28;20048;-67
2022/08/25 10:11:53;;;;;;;6.53;2.95;;;;;;;35.89;29.64;101373.81;5092507;28;20530;-66
2022/08/25 10:14:39;;;;;;;9.45;3.20;;;;;;;36.01;29.21;101368.88;5073048;28;20056;-66
2022/08/25 10:17:25;;;;;;;4.97;2.83;;;;;;;36.17;29.20;101362.31;5092397;28;20058;-67
2022/08/25 10:20:10;;;;;;;5.82;3.00;;;;;;;36.33;28.65;101365.28;5092658;28;20047;-67
2022/08/25 10:22:39;;;;;;;5.15;2.70;;;;;;;36.47;28.31;101361.78;5091227;28;20050;-67
2022/08/25 10:25:09;;;;;;;6.15;3.03;;;;;;;36.62;28.36;101358.22;5091807;28;20131;-67
2022/08/25 10:27:51;;;;;;;5.30;2.80;;;;;;;36.76;28.32;101353.00;5092222;28;20034;-67
2022/08/25 10:30:30;;;;;;;6.43;2.88;;;;;;;36.85;27.80;101334.59;5082923;28;20063;-67
2022/08/25 10:33:19;;;;;;;3.35;2.97;;;;;;;36.99;27.27;101338.59;5092175;28;20048;-67
2022/08/25 10:36:03;;;;;;;6.60;2.65;;;;;;;37.11;27.37;101328.00;5072036;28;20044;-66
2022/08/25 10:38:46;;;;;;;4.93;2.53;;;;;;;37.23;26.46;101330.63;5081144;28;20063;-67
2022/08/25 10:41:37;;;;;;;3.80;2.35;;;;;;;37.33;26.46;101327.84;5092011;28;20032;-67
2022/08/25 10:47:38;;;;;;;5.68;2.60;;;;;;;37.51;26.28;101318.09;5091344;28;20035;-67
2022/08/25 10:50:32;;;;;;;5.82;2.65;;;;;;;37.50;25.68;101308.84;5090847;28;20475;-67
2022/08/25 10:53:26;;;;;;;4.28;2.05;;;;;;;37.54;25.36;101300.72;5092077;28;20040;-67
2022/08/25 10:56:03;;;;;;;6.80;2.20;;;;;;;37.56;25.16;101303.25;5089265;28;20040;-67
2022/08/25 10:58:53;;;;;;;4.97;2.10;;;;;;;37.58;24.82;101299.03;5091914;28;20351;-67
2022/08/25 11:02:11;;;;;;;6.32;2.55;;;;;;;37.62;24.63;101294.56;5091952;28;20044;-67
2022/08/25 11:04:52;;;;;;;4.53;2.22;;;;;;;37.65;24.40;101290.38;5091700;27;20048;-68
2022/08/25 11:07:34;;;;;;;2.83;2.15;;;;;;;37.65;24.33;101293.16;5092155;28;20101;-74
2022/08/25 11:10:13;;;;;;;3.35;2.20;;;;;;;37.72;23.98;101297.41;5090599;28;20036;-75
2022/08/25 11:12:51;;;;;;;7.68;2.05;;;;;;;37.84;23.62;101295.16;5073849;28;20052;-74
2022/08/25 11:15:24;;;;;;;3.20;1.92;;;;;;;37.95;23.56;101286.78;5085159;28;20048;-74
2022/08/25 11:18:03;;;;;;;7.90;2.53;;;;;;;38.04;23.65;101285.09;5091683;28;20044;-76
2022/08/25 11:20:50;;;;;;;4.80;2.00;;;;;;;38.12;23.26;101282.56;5091735;28;20123;-72
2022/08/25 11:23:23;;;;;;;4.90;2.28;;;;;;;38.20;23.30;101284.00;5090511;28;20036;-74
2022/08/25 11:25:59;;;;;;;2.92;1.98;;;;;;;38.25;23.25;101274.72;5089661;28;20052;-71
2022/08/25 11:28:52;;;;;;;3.83;2.00;;;;;;;38.30;22.67;101271.91;5071316;28;20123;-72
2022/08/25 11:31:20;;;;;;;3.38;2.00;;;;;;;38.40;23.45;101272.72;5071132;28;20036;-72
2022/08/25 11:33:49;;;;;;;6.93;2.10;;;;;;;38.50;23.08;101273.81;5070979;28;20072;-73
2022/08/25 11:36:19;;;;;;;3.97;2.10;;;;;;;38.49;22.39;101270.19;5091107;28;20040;-73
2022/08/25 11:39:00;;;;;;;5.60;2.50;;;;;;;38.45;22.31;101269.06;5091345;28;20066;-70
2022/08/25 11:41:45;;;;;;;2.58;1.90;;;;;;;38.48;22.15;101255.31;5091710;28;20048;-70
2022/08/25 11:44:22;;;;;;;4.60;1.90;;;;;;;38.53;22.43;101250.81;5091210;28;20571;-71
2022/08/25 11:46:58;;;;;;;3.47;1.80;;;;;;;38.57;21.93;101249.94;5091126;28;20090;-71
2022/08/25 11:49:49;;;;;;;3.35;2.38;;;;;;;38.64;21.87;101255.28;5089948;28;20040;-71
2022/08/25 11:52:31;;;;;;;4.10;1.95;;;;;;;38.71;21.65;101245.47;5089608;28;20048;-71
2022/08/25 11:55:06;;;;;;;5.07;1.77;;;;;;;38.69;21.91;101235.66;5088911;28;20048;-71
2022/08/25 11:57:36;;;;;;;4.72;2.17;;;;;;;38.67;21.92;101230.31;5091077;28;20038;-72